Time;durP1;ratioP1;P1;durP2;ratioP2;P2;SDS_P1;SDS_P2;PMS_P1;PMS_P2;Temp;Humidity;BMP_temperature;BMP_pressure;BME280_temperature;BME280_humidity;BME280_pressure;Samples;Min_cycle;Max_cycle;Signal;HPM_P1;HPM_P2
2021/01/02 00:02:47;;;;;;;105.67;55.67;;;;;;;-0.26;72.72;94467.83;1751703;82;21185;-57
2021/01/02 00:05:15;;;;;;;92.82;47.40;;;;;;;-0.25;72.83;94459.31;1687455;83;21759;-58
2021/01/02 00:08:12;;;;;;;110.92;58.02;;;;;;;-0.23;72.65;94467.80;1751664;82;21507;-57
2021/01/02 00:11:15;;;;;;;173.55;89.83;;;;;;;-0.30;72.89;94476.48;1719820;83;21088;-58
2021/01/02 00:14:25;;;;;;;187.43;91.97;;;;;;;-0.40;72.85;94481.31;1751648;82;21170;-57
2021/01/02 00:17:03;;;;;;;173.20;84.60;;;;;;;-0.48;73.18;94484.58;1720188;83;21127;-56
2021/01/02 00:19:40;;;;;;;172.90;87.15;;;;;;;-0.37;73.36;94490.00;1751710;81;21091;-59
2021/01/02 00:22:15;;;;;;;166.03;82.47;;;;;;;-0.26;73.34;94492.15;1698425;83;21395;-57
2021/01/02 00:24:54;;;;;;;172.10;85.67;;;;;;;-0.14;72.94;94499.30;1749627;81;21009;-57
2021/01/02 00:27:47;;;;;;;163.70;84.35;;;;;;;-0.09;72.74;94494.06;1720270;83;21084;-57
2021/01/02 00:30:35;;;;;;;148.22;74.35;;;;;;;-0.08;72.51;94495.64;1721886;82;21140;-57
2021/01/02 00:33:14;;;;;;;215.82;102.90;;;;;;;-0.08;72.39;94501.80;1721395;83;21103;-57
2021/01/02 00:35:48;;;;;;;212.75;102.67;;;;;;;-0.08;72.04;94509.16;1739464;82;21209;-57
2021/01/02 00:38:16;;;;;;;;;;;;;;;-0.18;72.23;94511.25;1732015;83;21547;-56
2021/01/02 00:40:44;;;;;;;212.80;103.35;;;;;;;-0.16;72.57;94512.98;1720141;83;20250;-57
2021/01/02 00:43:13;;;;;;;221.20;108.35;;;;;;;-0.13;72.09;94523.03;1720184;83;21087;-56
2021/01/02 00:45:41;;;;;;;202.07;97.97;;;;;;;-0.22;72.39;94526.70;1726756;82;21056;-57
2021/01/02 00:48:10;;;;;;;215.30;110.37;;;;;;;-0.20;72.31;94528.44;1720164;83;21273;-56
2021/01/02 00:50:38;;;;;;;181.63;92.27;;;;;;;-0.21;72.59;94524.19;1726064;82;21178;-57
2021/01/02 00:53:46;;;;;;;182.55;92.17;;;;;;;-0.20;72.26;94515.67;1697550;83;21127;-57
2021/01/02 00:56:37;;;;;;;214.57;102.02;;;;;;;-0.22;72.33;94535.56;1726258;82;21182;-56
2021/01/02 00:59:55;;;;;;;215.22;108.32;;;;;;;-0.23;72.26;94521.86;1729384;83;21134;-57
2021/01/02 01:02:50;;;;;;;151.53;73.30;;;;;;;-0.29;72.71;94530.72;1711781;83;23537;-57
2021/01/02 01:05:21;;;;;;;181.32;92.02;;;;;;;-0.33;72.38;94522.63;1750341;80;21586;-57
2021/01/02 01:07:53;;;;;;;164.80;83.45;;;;;;;-0.41;72.61;94526.45;1751768;82;21627;-57
2021/01/02 01:10:24;;;;;;;180.25;88.95;;;;;;;-0.45;72.52;94527.63;1720333;83;21083;-58
2021/01/02 01:13:13;;;;;;;178.45;90.07;;;;;;;-0.50;72.82;94530.68;1751784;82;21027;-57
2021/01/02 01:15:41;;;;;;;197.32;99.90;;;;;;;-0.50;73.07;94538.78;1721780;82;21209;-57
2021/01/02 01:18:29;;;;;;;230.50;116.77;;;;;;;-0.52;73.23;94542.45;1749716;82;21103;-57
2021/01/02 01:20:59;;;;;;;210.13;105.60;;;;;;;-0.53;72.92;94551.70;1751650;81;21609;-56
2021/01/02 01:23:57;;;;;;;201.80;101.78;;;;;;;-0.51;73.31;94552.88;1751727;82;21151;-60
2021/01/02 01:26:34;;;;;;;205.22;101.30;;;;;;;-0.47;72.77;94554.22;1718405;83;21166;-57
2021/01/02 01:29:03;;;;;;;234.72;115.42;;;;;;;-0.45;73.08;94558.10;1740835;82;21388;-58
2021/01/02 01:31:45;;;;;;;238.12;115.65;;;;;;;-0.29;72.85;94555.05;1745271;82;21083;-58
2021/01/02 01:34:22;;;;;;;211.50;107.40;;;;;;;-0.21;72.56;94560.67;1722239;82;21063;-59
2021/01/02 01:36:50;;;;;;;226.00;105.75;;;;;;;-0.15;72.40;94553.73;1713958;82;21076;-56
2021/01/02 01:39:22;;;;;;;199.38;101.30;;;;;;;-0.09;72.30;94552.18;1745247;81;21099;-58
2021/01/02 01:41:59;;;;;;;227.78;113.95;;;;;;;-0.02;72.12;94564.56;1714065;83;22299;-58
2021/01/02 01:44:50;;;;;;;262.00;133.07;;;;;;;0.00;71.55;94564.95;1722112;83;21151;-57
2021/01/02 01:47:37;;;;;;;234.55;120.75;;;;;;;-0.19;71.68;94563.77;1713972;83;21072;-56
2021/01/02 01:50:19;;;;;;;156.52;84.77;;;;;;;-0.30;71.59;94567.01;1722010;83;21591;-58
2021/01/02 01:53:32;;;;;;;180.42;93.03;;;;;;;-0.43;71.75;94559.08;1715650;82;21537;-57
2021/01/02 01:56:15;;;;;;;226.55;112.08;;;;;;;-0.55;72.33;94557.48;1782523;79;21370;-58
2021/01/02 01:59:08;;;;;;;238.10;117.47;;;;;;;-0.59;72.67;94559.99;1782556;80;21094;-58
2021/01/02 02:01:38;;;;;;;228.35;115.67;;;;;;;-0.57;72.85;94560.38;1782474;80;21118;-57
2021/01/02 02:04:19;;;;;;;248.40;126.18;;;;;;;-0.51;72.99;94569.66;1782498;80;21122;-58
2021/01/02 02:06:56;;;;;;;254.13;130.12;;;;;;;-0.48;72.83;94561.57;1781923;80;21574;-56
2021/01/02 02:09:24;;;;;;;208.10;106.35;;;;;;;-0.52;72.73;94566.76;1782426;80;21396;-57
2021/01/02 02:12:05;;;;;;;184.30;100.07;;;;;;;-0.50;73.08;94572.55;1698087;80;21075;-57
2021/01/02 02:15:02;;;;;;;194.20;100.35;;;;;;;-0.44;72.56;94580.50;1766986;80;21067;-59
2021/01/02 02:17:45;;;;;;;207.27;106.12;;;;;;;-0.56;72.41;94570.03;1782686;79;21051;-56
2021/01/02 02:20:22;;;;;;;200.70;104.60;;;;;;;-0.68;72.49;94576.55;1782725;80;21062;-57
2021/01/02 02:23:07;;;;;;;189.72;101.02;;;;;;;-0.73;73.09;94572.88;1780375;80;22137;-57
2021/01/02 02:25:49;;;;;;;189.18;96.95;;;;;;;-0.73;72.97;94570.73;1782791;79;21744;-57
2021/01/02 02:28:46;;;;;;;215.12;105.00;;;;;;;-0.71;73.06;94575.17;1782911;80;21568;-58
2021/01/02 02:31:16;;;;;;;189.75;98.17;;;;;;;-0.64;72.94;94575.19;1781333;80;21133;-58
2021/01/02 02:33:59;;;;;;;205.45;102.95;;;;;;;-0.55;72.85;94574.28;1782663;80;21170;-59
2021/01/02 02:36:31;;;;;;;183.93;97.42;;;;;;;-0.52;72.44;94573.52;1782009;80;21204;-57
2021/01/02 02:39:01;;;;;;;194.55;97.95;;;;;;;-0.52;72.42;94577.56;1782689;80;21591;-56
2021/01/02 02:41:37;;;;;;;174.53;94.05;;;;;;;-0.58;72.20;94582.55;1782663;80;21570;-56
2021/01/02 02:44:05;;;;;;;187.68;99.25;;;;;;;-0.66;72.56;94584.25;1782361;80;21161;-57
2021/01/02 02:46:34;;;;;;;187.85;98.15;;;;;;;-0.57;73.00;94573.89;1782611;80;21043;-57
2021/01/02 02:49:07;;;;;;;199.85;105.55;;;;;;;-0.53;72.38;94578.72;1782762;80;22055;-57
2021/01/02 02:51:45;;;;;;;224.12;110.83;;;;;;;-0.56;72.36;94572.73;1782653;80;21138;-57
2021/01/02 02:54:12;;;;;;;203.25;107.90;;;;;;;-0.61;72.31;94572.52;1782321;80;21507;-55
2021/01/02 02:56:40;;;;;;;227.32;111.55;;;;;;;-0.63;72.78;94573.47;1782688;80;21047;-56
2021/01/02 02:59:11;;;;;;;196.18;101.85;;;;;;;-0.60;72.75;94579.46;1782678;80;21139;-57
2021/01/02 03:01:39;;;;;;;210.95;108.22;;;;;;;-0.49;72.84;94578.94;1782665;80;21198;-57
2021/01/02 03:04:07;;;;;;;208.65;101.97;;;;;;;-0.50;72.53;94576.60;1782535;80;21150;-57
2021/01/02 03:06:35;;;;;;;220.90;112.65;;;;;;;-0.52;72.64;94587.02;1782562;79;21141;-57
2021/01/02 03:09:03;;;;;;;189.82;101.02;;;;;;;-0.54;72.69;94581.22;1782628;80;21070;-56
2021/01/02 03:11:31;;;;;;;181.30;93.97;;;;;;;-0.54;72.66;94582.58;1782660;80;21051;-57
2021/01/02 03:13:59;;;;;;;225.87;111.22;;;;;;;-0.54;73.00;94583.92;1782718;80;22174;-57
2021/01/02 03:16:27;;;;;;;225.13;118.65;;;;;;;-0.60;72.63;94590.86;1782549;80;21154;-56
2021/01/02 03:18:55;;;;;;;236.92;121.40;;;;;;;-0.68;72.75;94590.05;1782720;80;21114;-57
2021/01/02 03:21:23;;;;;;;181.80;95.17;;;;;;;-0.68;73.02;94587.35;1782780;80;21078;-57
2021/01/02 03:23:51;;;;;;;192.43;101.95;;;;;;;-0.56;73.03;94592.99;1782827;80;21067;-57
2021/01/02 03:26:19;;;;;;;200.65;103.47;;;;;;;-0.42;72.70;94589.00;1782681;79;22098;-58
2021/01/02 03:28:53;;;;;;;230.12;116.30;;;;;;;-0.46;72.39;94593.59;1782644;80;21118;-56
2021/01/02 03:31:20;;;;;;;213.85;108.27;;;;;;;-0.47;72.49;94587.43;1782614;80;21051;-56
2021/01/02 03:33:48;;;;;;;228.47;121.30;;;;;;;-0.45;72.40;94593.81;1782622;80;21083;-56
2021/01/02 03:36:17;;;;;;;243.00;121.13;;;;;;;-0.44;72.30;94596.71;1782604;80;21103;-56
2021/01/02 03:38:54;;;;;;;250.68;125.33;;;;;;;-0.47;72.23;94590.70;1782687;80;22102;-57
2021/01/02 03:41:25;;;;;;;258.32;129.75;;;;;;;-0.52;72.10;94593.21;1782539;80;21095;-56
2021/01/02 03:43:52;;;;;;;224.37;113.50;;;;;;;-0.52;72.13;94593.77;1782633;79;21468;-56
2021/01/02 03:46:26;;;;;;;228.77;118.05;;;;;;;-0.52;72.36;94615.38;1782675;80;21487;-57
2021/01/02 03:48:55;;;;;;;208.10;101.65;;;;;;;-0.44;72.17;94606.17;1753647;80;21451;-56
2021/01/02 03:51:25;;;;;;;181.65;96.50;;;;;;;-0.45;72.00;94598.63;1782698;80;22330;-57
2021/01/02 03:53:53;;;;;;;210.80;108.32;;;;;;;-0.40;72.18;94604.24;1782640;80;21489;-57
2021/01/02 03:56:21;;;;;;;232.65;120.00;;;;;;;-0.37;71.74;94602.89;1782519;80;21055;-57
2021/01/02 03:58:51;;;;;;;215.95;112.57;;;;;;;-0.50;71.91;94601.70;1782553;80;21087;-57
2021/01/02 04:01:19;;;;;;;193.10;105.17;;;;;;;-0.53;72.16;94615.19;1782664;80;21107;-57
2021/01/02 04:03:47;;;;;;;203.60;102.05;;;;;;;-0.52;72.33;94618.88;1782552;80;21391;-56
2021/01/02 04:06:26;;;;;;;213.95;114.10;;;;;;;-0.48;72.04;94615.60;1782552;80;21165;-58
2021/01/02 04:08:53;;;;;;;197.47;102.60;;;;;;;-0.56;72.23;94617.30;1782548;80;20996;-56
2021/01/02 04:11:22;;;;;;;223.53;110.28;;;;;;;-0.54;72.41;94621.75;1782573;80;21067;-58
2021/01/02 04:13:50;;;;;;;220.73;112.80;;;;;;;-0.53;72.29;94620.59;1782565;80;21576;-56
2021/01/02 04:16:18;;;;;;;200.03;100.62;;;;;;;-0.51;72.25;94625.82;1782654;80;21252;-57
2021/01/02 04:18:46;;;;;;;194.97;100.87;;;;;;;-0.48;72.11;94631.02;1782481;80;21118;-56
2021/01/02 04:21:14;;;;;;;156.80;85.40;;;;;;;-0.48;72.33;94629.67;1752253;80;21055;-56
2021/01/02 04:23:42;;;;;;;227.00;118.75;;;;;;;-0.35;72.29;94640.34;1782544;80;21201;-58
2021/01/02 04:26:10;;;;;;;234.92;123.33;;;;;;;-0.34;71.61;94638.62;1752411;79;21177;-57
2021/01/02 04:28:38;;;;;;;216.35;116.20;;;;;;;-0.53;71.77;94646.25;1782549;80;21383;-58
2021/01/02 04:31:05;;;;;;;216.57;115.42;;;;;;;-0.58;72.27;94645.27;1782575;80;21555;-58
2021/01/02 04:33:33;;;;;;;237.40;123.70;;;;;;;-0.50;72.15;94652.24;1782528;80;21062;-57
2021/01/02 04:36:04;;;;;;;207.75;108.17;;;;;;;-0.48;71.89;94658.83;1782522;80;21082;-57
2021/01/02 04:38:32;;;;;;;211.52;108.30;;;;;;;-0.48;71.64;94658.04;1782650;80;21070;-57
2021/01/02 04:40:59;;;;;;;167.00;86.57;;;;;;;-0.53;71.86;94661.89;1782487;80;21198;-57
2021/01/02 04:43:27;;;;;;;155.75;85.00;;;;;;;-0.45;71.92;94664.06;1782519;80;21802;-58
2021/01/02 04:45:55;;;;;;;169.50;87.02;;;;;;;-0.40;71.94;94668.50;1782495;80;21142;-57
2021/01/02 04:48:23;;;;;;;163.80;88.95;;;;;;;-0.30;71.51;94671.05;1782572;80;21515;-56
2021/01/02 04:50:51;;;;;;;161.18;81.12;;;;;;;-0.32;71.54;94670.09;1782544;80;21075;-58
2021/01/02 04:53:20;;;;;;;145.35;75.32;;;;;;;-0.26;71.46;94667.81;1782562;80;21199;-56
2021/01/02 04:55:49;;;;;;;149.02;75.62;;;;;;;-0.17;71.27;94666.86;1752598;80;21150;-57
2021/01/02 04:58:19;;;;;;;145.90;74.03;;;;;;;-0.12;71.11;94670.53;1782525;80;21142;-57
2021/01/02 05:00:48;;;;;;;142.50;79.55;;;;;;;-0.08;70.90;94678.87;1782884;80;21550;-57
2021/01/02 05:03:16;;;;;;;174.00;93.97;;;;;;;-0.04;71.11;94681.59;1782543;80;21078;-57
2021/01/02 05:05:50;;;;;;;178.45;94.35;;;;;;;0.08;71.31;94682.77;1782512;80;21260;-58
2021/01/02 05:08:19;;;;;;;153.78;79.97;;;;;;;0.15;70.82;94677.96;1782514;80;21054;-56
2021/01/02 05:11:02;;;;;;;180.07;99.80;;;;;;;0.10;70.65;94681.83;1782503;79;21110;-57
2021/01/02 05:13:39;;;;;;;191.10;98.22;;;;;;;0.03;70.59;94679.09;1873599;76;22276;-58
2021/01/02 05:16:35;;;;;;;167.53;91.22;;;;;;;-0.23;70.98;94692.12;1841614;78;20927;-58
2021/01/02 05:18:59;;;;;;;181.93;92.53;;;;;;;-0.37;71.40;94696.70;1840877;77;21336;-56
2021/01/02 05:21:29;;;;;;;165.73;93.65;;;;;;;-0.54;71.78;94689.27;1841667;77;20946;-57
2021/01/02 05:24:20;;;;;;;170.80;89.60;;;;;;;-0.57;72.28;94695.44;1841795;77;21486;-58
2021/01/02 05:26:57;;;;;;;162.32;83.95;;;;;;;-0.50;72.64;94705.70;1841979;77;21184;-57
2021/01/02 05:29:28;;;;;;;189.70;100.82;;;;;;;-0.34;72.42;94704.05;1841788;77;21057;-57
2021/01/02 05:31:58;;;;;;;204.43;104.00;;;;;;;-0.34;72.25;94706.75;1841630;77;21125;-57
2021/01/02 05:34:29;;;;;;;207.43;108.17;;;;;;;-0.33;72.41;94713.13;1812066;77;21606;-57
2021/01/02 05:37:01;;;;;;;216.53;112.77;;;;;;;-0.23;72.32;94718.39;1841742;78;21077;-58
2021/01/02 05:39:52;;;;;;;212.48;109.63;;;;;;;-0.16;72.32;94729.23;1841666;77;21062;-59
2021/01/02 05:42:21;;;;;;;217.77;112.50;;;;;;;-0.12;71.73;94730.01;1812556;78;21160;-60
2021/01/02 05:44:49;;;;;;;222.35;112.05;;;;;;;-0.22;71.94;94723.99;1808559;79;22066;-58
2021/01/02 05:47:21;;;;;;;225.38;114.95;;;;;;;-0.16;71.87;94725.17;1808530;78;21073;-56
2021/01/02 05:49:50;;;;;;;295.20;136.60;;;;;;;-0.16;71.74;94727.88;1808681;79;21211;-59
2021/01/02 05:52:19;;;;;;;309.98;144.40;;;;;;;-0.20;71.64;94727.09;1808494;79;21546;-57
2021/01/02 05:54:50;;;;;;;288.45;136.15;;;;;;;-0.25;71.92;94734.22;1808634;79;21497;-57
2021/01/02 05:57:28;;;;;;;292.30;139.03;;;;;;;-0.28;71.80;94737.09;1808509;78;21364;-57
2021/01/02 05:59:57;;;;;;;264.15;125.67;;;;;;;-0.32;71.95;94736.86;1808452;79;21102;-58
2021/01/02 06:02:31;;;;;;;301.10;149.42;;;;;;;-0.28;72.16;94743.84;1808550;79;21489;-57
2021/01/02 06:05:05;;;;;;;248.62;125.55;;;;;;;-0.28;71.94;94743.05;1808527;79;21668;-58
2021/01/02 06:07:36;;;;;;;277.90;132.87;;;;;;;-0.33;71.82;94738.02;1808526;79;21125;-58
2021/01/02 06:10:08;;;;;;;273.95;132.07;;;;;;;-0.34;71.96;94739.17;1808605;79;22263;-59
2021/01/02 06:12:39;;;;;;;270.12;129.55;;;;;;;-0.33;71.97;94745.56;1779702;79;21085;-58
2021/01/02 06:15:15;;;;;;;267.18;131.57;;;;;;;-0.29;71.98;94742.30;1808500;78;21131;-59
2021/01/02 06:17:48;;;;;;;249.47;122.95;;;;;;;-0.23;71.83;94748.13;1779799;79;21137;-57
2021/01/02 06:20:17;;;;;;;237.70;123.82;;;;;;;-0.24;71.46;94750.63;1808641;79;21203;-57
2021/01/02 06:22:45;;;;;;;245.65;118.80;;;;;;;-0.27;71.43;94750.01;1808583;78;22100;-58
2021/01/02 06:25:13;;;;;;;229.28;114.42;;;;;;;-0.27;71.44;94739.20;1807784;79;21973;-58
2021/01/02 06:27:43;;;;;;;211.10;108.37;;;;;;;-0.19;71.43;94736.16;1807912;79;21141;-58
2021/01/02 06:30:18;;;;;;;211.35;106.83;;;;;;;-0.13;71.22;94737.92;1807912;79;21530;-58
2021/01/02 06:32:47;;;;;;;218.15;111.35;;;;;;;-0.11;71.03;94735.05;1807977;78;21199;-58
2021/01/02 06:35:21;;;;;;;232.98;119.57;;;;;;;-0.14;71.24;94739.86;1807692;79;21275;-58
2021/01/02 06:37:58;;;;;;;211.85;106.55;;;;;;;-0.14;71.20;94748.53;1808021;79;21117;-58
2021/01/02 06:40:29;;;;;;;208.75;107.25;;;;;;;-0.08;71.35;94760.56;1807812;78;21081;-59
2021/01/02 06:42:59;;;;;;;284.40;135.20;;;;;;;0.01;70.87;94759.81;1807998;79;21514;-59
2021/01/02 06:45:41;;;;;;;279.70;130.25;;;;;;;0.10;70.72;94762.17;1807914;79;21069;-59
2021/01/02 06:48:26;;;;;;;;;;;;;;;0.12;70.39;94762.00;1810585;79;21249;-59
2021/01/02 06:50:56;;;;;;;233.93;113.77;;;;;;;0.09;69.98;94770.88;1807998;78;20220;-58
2021/01/02 06:53:34;;;;;;;250.47;118.62;;;;;;;0.02;70.34;94771.42;1807801;78;21545;-58
2021/01/02 06:56:10;;;;;;;234.35;119.70;;;;;;;0.04;70.31;94773.92;1807702;78;21121;-59
2021/01/02 06:58:49;;;;;;;220.65;112.88;;;;;;;0.10;70.45;94789.22;1807944;78;21070;-59
2021/01/02 07:01:26;;;;;;;288.65;142.28;;;;;;;0.15;70.29;94781.52;1808022;78;22342;-57
2021/01/02 07:03:54;;;;;;;253.73;130.25;;;;;;;0.18;70.14;94793.48;1807966;78;21605;-58
2021/01/02 07:06:24;;;;;;;269.07;136.28;;;;;;;0.23;70.33;94793.91;1807996;79;21482;-58
2021/01/02 07:08:59;;;;;;;266.90;134.72;;;;;;;0.29;70.04;94792.41;1807946;78;21545;-58
2021/01/02 07:11:38;;;;;;;293.25;154.27;;;;;;;0.31;70.20;94798.20;1808046;79;21114;-57
2021/01/02 07:14:17;;;;;;;322.52;163.62;;;;;;;0.37;70.12;94792.61;1813065;79;22150;-58
2021/01/02 07:17:09;;;;;;;321.90;165.15;;;;;;;0.32;70.19;94785.44;1813631;79;21505;-58
2021/01/02 07:19:48;;;;;;;323.85;167.18;;;;;;;0.27;70.20;94793.36;1813554;78;20947;-57
2021/01/02 07:22:22;;;;;;;276.27;148.57;;;;;;;0.16;70.29;94799.30;1813764;79;21089;-61
2021/01/02 07:25:02;;;;;;;294.40;155.78;;;;;;;0.18;71.07;94812.42;1813691;78;21208;-59
2021/01/02 07:27:35;;;;;;;269.93;141.75;;;;;;;0.21;70.73;94805.68;1813628;78;21183;-60
2021/01/02 07:30:09;;;;;;;259.95;140.65;;;;;;;0.23;71.03;94814.19;1813541;78;21148;-58
2021/01/02 07:32:42;;;;;;;239.17;125.20;;;;;;;0.28;70.99;94821.96;1813589;78;21074;-60
2021/01/02 07:35:12;;;;;;;214.95;115.90;;;;;;;0.30;71.22;94823.70;1813639;79;21128;-58
2021/01/02 07:37:43;;;;;;;227.75;120.25;;;;;;;0.39;71.51;94816.00;1786938;79;21559;-60
2021/01/02 07:40:13;;;;;;;198.00;104.83;;;;;;;0.57;71.41;94825.55;1813683;79;21212;-58
2021/01/02 07:42:49;;;;;;;175.12;98.45;;;;;;;0.72;71.14;94826.56;1813573;78;21124;-58
2021/01/02 07:45:25;;;;;;;203.25;106.83;;;;;;;0.75;71.08;94817.67;1786366;79;21108;-59
2021/01/02 07:47:56;;;;;;;256.40;139.85;;;;;;;0.79;70.72;94826.56;1813205;78;21137;-59
2021/01/02 07:50:29;;;;;;;366.68;189.25;;;;;;;0.73;70.57;94825.40;1813274;78;21073;-59
2021/01/02 07:52:59;;;;;;;376.62;196.07;;;;;;;0.60;70.61;94821.48;1813195;78;22090;-60
2021/01/02 07:58:20;;;;;;;394.02;235.57;;;;;;;0.72;71.06;94815.73;1873453;76;27956;-59
2021/01/02 08:00:48;;;;;;;384.50;212.10;;;;;;;0.91;71.00;94821.37;1860166;75;21057;-59
2021/01/02 08:03:16;;;;;;;339.98;183.32;;;;;;;1.04;70.64;94826.63;1860865;77;21476;-60
2021/01/02 08:05:44;;;;;;;286.37;155.63;;;;;;;1.05;70.76;94825.47;1860720;77;21481;-59
2021/01/02 08:08:12;;;;;;;251.70;138.60;;;;;;;1.10;70.72;94827.22;1860932;77;20997;-59
2021/01/02 08:10:42;;;;;;;113.55;68.07;;;;;;;1.06;70.94;94823.73;1860944;77;21175;-57
2021/01/02 08:13:10;;;;;;;157.25;83.58;;;;;;;1.16;70.92;94826.27;1827861;77;21156;-60
2021/01/02 08:15:38;;;;;;;140.22;78.20;;;;;;;1.24;70.83;94825.89;1801819;77;21335;-58
2021/01/02 08:18:08;;;;;;;123.42;71.65;;;;;;;1.28;70.98;94826.66;1860939;77;20961;-60
2021/01/02 08:20:39;;;;;;;157.32;92.27;;;;;;;1.38;70.92;94827.83;1861035;77;20914;-58
2021/01/02 08:23:15;;;;;;;132.57;78.95;;;;;;;1.51;70.85;94826.29;1860519;77;21092;-60
2021/01/02 08:25:43;;;;;;;129.97;73.22;;;;;;;1.72;70.70;94831.11;1860949;77;21096;-63
2021/01/02 08:28:12;;;;;;;133.05;74.15;;;;;;;1.82;70.47;94827.05;1860999;77;22241;-58
2021/01/02 08:30:40;;;;;;;153.35;90.42;;;;;;;1.85;70.56;94827.63;1810054;78;21081;-58
2021/01/02 08:33:10;;;;;;;137.62;80.95;;;;;;;1.90;70.52;94823.16;1787399;78;21493;-58
2021/01/02 08:35:42;;;;;;;151.32;90.67;;;;;;;2.00;70.86;94827.02;1795622;78;21485;-57
2021/01/02 08:38:11;;;;;;;133.10;79.58;;;;;;;2.03;71.13;94833.80;1795939;78;21057;-59
2021/01/02 08:40:47;;;;;;;127.38;75.42;;;;;;;2.12;70.97;94827.97;1826666;78;21389;-59
2021/01/02 08:43:26;;;;;;;126.45;73.15;;;;;;;2.20;71.13;94834.91;1827065;78;21092;-60
2021/01/02 08:46:01;;;;;;;108.97;66.90;;;;;;;2.28;70.78;94836.43;1816152;78;21140;-59
2021/01/02 08:48:29;;;;;;;148.60;85.40;;;;;;;2.41;70.92;94837.56;1827264;78;21060;-60
2021/01/02 08:50:58;;;;;;;122.53;74.12;;;;;;;2.55;70.89;94841.59;1827273;78;21480;-57
2021/01/02 08:53:33;;;;;;;122.62;73.12;;;;;;;2.77;70.63;94830.83;1827307;78;22125;-57
2021/01/02 08:56:26;;;;;;;120.97;71.87;;;;;;;3.03;70.39;94824.29;1827082;78;21120;-59
2021/01/02 08:58:54;;;;;;;116.93;69.67;;;;;;;3.31;69.56;94831.50;1827373;78;21147;-60
2021/01/02 09:01:25;;;;;;;122.87;75.65;;;;;;;3.53;68.98;94835.79;1827229;78;21088;-57
2021/01/02 09:03:53;;;;;;;114.20;69.40;;;;;;;3.74;68.56;94841.66;1760440;80;21547;-59
2021/01/02 09:09:09;;;;;;;101.53;65.00;;;;;;;4.15;67.96;94839.16;1873627;75;21772;-59
2021/01/02 09:11:50;;;;;;;72.92;46.18;;;;;;;4.17;67.55;94846.34;1840964;77;21148;-59
2021/01/02 09:14:19;;;;;;;73.05;45.75;;;;;;;4.28;67.29;94836.70;1841788;77;22230;-61
2021/01/02 09:17:02;;;;;;;79.85;45.50;;;;;;;4.36;66.89;94829.41;1841605;77;20983;-61
2021/01/02 09:19:30;;;;;;;87.78;49.73;;;;;;;4.51;66.92;94830.81;1841662;78;21223;-59
2021/01/02 09:22:00;;;;;;;107.65;61.02;;;;;;;4.77;66.10;94828.74;1841602;77;21113;-62
2021/01/02 09:24:32;;;;;;;104.05;60.70;;;;;;;4.98;65.69;94826.35;1841871;77;21073;-60
2021/01/02 09:27:01;;;;;;;111.52;64.97;;;;;;;5.07;65.16;94836.94;1841643;78;21349;-61
2021/01/02 09:29:32;;;;;;;132.40;75.62;;;;;;;5.23;64.68;94843.33;1841580;77;21081;-61
2021/01/02 09:32:01;;;;;;;131.37;71.60;;;;;;;5.46;63.60;94830.34;1812037;78;21232;-59
2021/01/02 09:34:30;;;;;;;106.50;58.52;;;;;;;5.72;62.96;94829.55;1841485;77;20980;-58
2021/01/02 09:36:58;;;;;;;134.32;76.42;;;;;;;5.82;62.37;94823.19;1841490;77;21125;-60
2021/01/02 09:39:28;;;;;;;153.47;89.50;;;;;;;5.96;62.87;94807.95;1841526;77;21360;-60
2021/01/02 09:41:58;;;;;;;107.35;63.73;;;;;;;6.21;62.03;94811.02;1818540;77;21117;-60
2021/01/02 09:44:26;;;;;;;95.40;59.53;;;;;;;6.35;61.17;94805.30;1808595;78;21180;-58
2021/01/02 09:46:54;;;;;;;68.50;43.95;;;;;;;6.46;60.98;94801.17;1808405;79;21525;-61
2021/01/02 09:49:22;;;;;;;78.83;47.30;;;;;;;6.42;60.62;94801.06;1808413;78;21490;-59
2021/01/02 09:51:50;;;;;;;94.92;55.90;;;;;;;6.32;60.45;94800.67;1808455;78;22165;-60
2021/01/02 09:54:19;;;;;;;87.70;54.38;;;;;;;6.20;60.54;94797.18;1808460;78;21152;-59
2021/01/02 09:56:47;;;;;;;85.75;51.75;;;;;;;6.18;60.42;94797.58;1808485;78;21121;-60
2021/01/02 09:59:15;;;;;;;71.65;43.55;;;;;;;6.24;60.33;94793.78;1808591;78;21081;-60
2021/01/02 10:01:43;;;;;;;64.60;41.25;;;;;;;6.31;60.20;94801.87;1808598;78;21473;-58
2021/01/02 10:04:11;;;;;;;65.52;42.62;;;;;;;6.31;60.35;94800.50;1808360;79;22232;-60
2021/01/02 10:06:45;;;;;;;81.42;47.55;;;;;;;6.36;60.68;94790.45;1808257;78;21246;-60
2021/01/02 10:09:15;;;;;;;79.80;49.38;;;;;;;6.67;60.99;94792.56;1808291;79;21085;-58
2021/01/02 10:11:43;;;;;;;79.60;48.80;;;;;;;6.97;60.61;94789.61;1808448;79;21057;-61
2021/01/02 10:14:12;;;;;;;67.95;44.35;;;;;;;7.27;60.28;94786.01;1808524;78;21155;-58
2021/01/02 10:16:40;;;;;;;74.47;44.67;;;;;;;7.59;59.70;94784.69;1808598;79;22459;-58
2021/01/02 10:19:09;;;;;;;42.33;27.35;;;;;;;7.83;59.37;94783.31;1808307;78;21144;-59
2021/01/02 10:21:38;;;;;;;39.78;26.25;;;;;;;8.19;57.87;94788.11;1807909;78;21123;-58
2021/01/02 10:24:14;;;;;;;44.70;29.05;;;;;;;8.61;56.67;94781.50;1807896;78;21079;-59
2021/01/02 10:26:42;;;;;;;54.27;34.65;;;;;;;8.89;55.32;94768.38;1807889;78;21069;-59
2021/01/02 10:29:10;;;;;;;53.68;35.68;;;;;;;9.31;54.78;94775.36;1807848;79;21497;-61
2021/01/02 10:31:39;;;;;;;58.00;38.53;;;;;;;9.81;53.52;94769.88;1807896;78;21172;-58
2021/01/02 10:34:07;;;;;;;65.20;39.95;;;;;;;10.19;52.23;94758.23;1807964;79;21149;-57
2021/01/02 10:36:35;;;;;;;47.00;29.90;;;;;;;10.51;51.26;94760.67;1807884;79;21200;-62
2021/01/02 10:39:04;;;;;;;58.73;37.55;;;;;;;10.83;50.29;94748.06;1807925;78;21042;-58
2021/01/02 10:41:33;;;;;;;49.98;34.85;;;;;;;11.02;49.69;94748.96;1807874;78;21207;-60
2021/01/02 10:44:02;;;;;;;82.67;53.42;;;;;;;11.20;48.86;94743.56;1754026;79;21069;-57
2021/01/02 10:46:30;;;;;;;81.53;51.92;;;;;;;11.14;48.73;94738.48;1807852;79;21107;-57
2021/01/02 10:48:57;;;;;;;100.85;57.95;;;;;;;11.15;48.59;94736.65;1807846;78;21133;-59
2021/01/02 10:51:25;;;;;;;99.13;57.78;;;;;;;11.28;48.61;94731.83;1807897;79;21093;-59
2021/01/02 10:53:53;;;;;;;78.67;45.88;;;;;;;11.42;48.38;94731.29;1807962;78;22334;-59
2021/01/02 10:56:22;;;;;;;68.83;41.30;;;;;;;11.48;47.94;94725.93;1807884;78;21514;-57
2021/01/02 10:58:50;;;;;;;64.42;37.83;;;;;;;11.50;48.10;94719.39;1807870;78;21054;-58
2021/01/02 11:01:21;;;;;;;60.05;34.75;;;;;;;11.68;47.66;94714.72;1807858;78;21104;-57
2021/01/02 11:03:51;;;;;;;35.20;23.95;;;;;;;12.00;47.07;94715.58;1807902;78;21061;-60
2021/01/02 11:06:19;;;;;;;36.88;23.25;;;;;;;12.03;46.62;94700.88;1807866;78;21380;-59
2021/01/02 11:08:48;;;;;;;42.85;27.10;;;;;;;12.08;46.50;94707.16;1807681;79;21105;-59
2021/01/02 11:11:20;;;;;;;45.70;27.55;;;;;;;12.23;46.25;94706.72;1807833;79;21124;-57
2021/01/02 11:13:49;;;;;;;57.43;36.10;;;;;;;12.40;45.51;94698.91;1808015;79;27472;-60
2021/01/02 11:16:18;;;;;;;65.87;33.83;;;;;;;12.50;45.63;94698.47;1807885;78;21074;-59
2021/01/02 11:18:47;;;;;;;39.30;25.90;;;;;;;12.68;45.14;94692.95;1779210;79;21186;-58
2021/01/02 11:21:15;;;;;;;49.18;26.85;;;;;;;12.69;44.61;94694.48;1807792;78;21200;-60
2021/01/02 11:23:44;;;;;;;36.88;23.22;;;;;;;12.42;45.16;94691.71;1807887;78;21057;-58
2021/01/02 11:26:14;;;;;;;41.00;24.10;;;;;;;12.30;45.52;94688.48;1801374;78;21085;-58
2021/01/02 11:28:45;;;;;;;49.95;28.90;;;;;;;12.30;45.77;94695.38;1685322;82;21078;-62
2021/01/02 11:31:13;;;;;;;55.58;29.45;;;;;;;12.54;45.54;94683.91;1725478;83;22246;-60
2021/01/02 11:33:42;;;;;;;42.55;27.42;;;;;;;12.88;44.80;94680.17;1705248;82;21109;-57
2021/01/02 11:36:11;;;;;;;46.73;27.05;;;;;;;13.24;44.61;94679.36;1697174;84;21079;-60
2021/01/02 11:38:39;;;;;;;41.33;23.95;;;;;;;13.56;43.77;94684.91;1697319;83;21100;-57
2021/01/02 11:41:09;;;;;;;52.33;30.25;;;;;;;13.95;43.87;94678.84;1705177;83;21173;-57
2021/01/02 11:43:38;;;;;;;53.35;31.02;;;;;;;14.51;42.00;94672.65;1697257;83;21467;-58